Montmagny, Canada
Current Conditions -  °F | °C
As of 8:19 PM on Saturday 22 Nov 2014 (Local Time) from CYQB Reporting Station
Light Snow Light Snow  
Wind Chill: 18°   Ceiling: 1700
Heat Index: 30°   Visibility: 2mi
Dew Point: 27°   Wind: 17mph
Humidity: 86%   Direction: 240°WSW
Pressure: 29.83"   Gusts: 23mph
Location:  46.97°N, 70.55°W
Report Text: CYQB 230119Z 24015G20KT 2SM -SN BLSN OVC017 M01/M03 A2983 RMK BLSN4SC4 SLP107
Loading
Personal Weather Stations






























Interactive Weather Map New forecast layout! Learn more

10-Day Weather Forecast

Advertisements
Track Severe Weather on mobile